sensor_id;sensor_type;location;lat;lon;timestamp;P1;durP1;ratioP1;P2;durP2;ratioP2
20870;SDS011;10595;51.218;3.452;2022-12-18T00:00:30;110.27;;;40.23;;
20870;SDS011;10595;51.218;3.452;2022-12-18T00:02:56;133.10;;;42.23;;
20870;SDS011;10595;51.218;3.452;2022-12-18T00:05:22;99.70;;;41.07;;
20870;SDS011;10595;51.218;3.452;2022-12-18T00:07:48;108.27;;;41.87;;
20870;SDS011;10595;51.218;3.452;2022-12-18T00:10:14;101.87;;;41.27;;
20870;SDS011;10595;51.218;3.452;2022-12-18T00:12:40;99.77;;;41.40;;
20870;SDS011;10595;51.218;3.452;2022-12-18T00:15:06;102.00;;;42.30;;
20870;SDS011;10595;51.218;3.452;2022-12-18T00:17:32;106.73;;;43.57;;
20870;SDS011;10595;51.218;3.452;2022-12-18T00:19:58;107.90;;;41.73;;
20870;SDS011;10595;51.218;3.452;2022-12-18T00:22:24;102.53;;;43.00;;
20870;SDS011;10595;51.218;3.452;2022-12-18T00:24:50;101.43;;;43.00;;
20870;SDS011;10595;51.218;3.452;2022-12-18T00:27:16;107.53;;;43.47;;
20870;SDS011;10595;51.218;3.452;2022-12-18T00:29:42;100.50;;;42.80;;
20870;SDS011;10595;51.218;3.452;2022-12-18T00:32:08;95.73;;;40.30;;
20870;SDS011;10595;51.218;3.452;2022-12-18T00:34:34;98.63;;;42.63;;
20870;SDS011;10595;51.218;3.452;2022-12-18T00:37:00;95.60;;;39.83;;
20870;SDS011;10595;51.218;3.452;2022-12-18T00:39:26;97.50;;;40.43;;
20870;SDS011;10595;51.218;3.452;2022-12-18T00:41:52;91.93;;;41.40;;
20870;SDS011;10595;51.218;3.452;2022-12-18T00:44:36;96.23;;;41.27;;
20870;SDS011;10595;51.218;3.452;2022-12-18T00:47:02;94.73;;;40.27;;
20870;SDS011;10595;51.218;3.452;2022-12-18T00:49:28;86.33;;;39.53;;
20870;SDS011;10595;51.218;3.452;2022-12-18T00:51:54;84.97;;;38.80;;
20870;SDS011;10595;51.218;3.452;2022-12-18T00:54:20;88.60;;;39.13;;
20870;SDS011;10595;51.218;3.452;2022-12-18T00:56:46;87.97;;;40.00;;
20870;SDS011;10595;51.218;3.452;2022-12-18T00:59:12;81.10;;;38.07;;
20870;SDS011;10595;51.218;3.452;2022-12-18T01:01:38;81.30;;;39.10;;
20870;SDS011;10595;51.218;3.452;2022-12-18T01:04:04;84.03;;;36.83;;
20870;SDS011;10595;51.218;3.452;2022-12-18T01:06:30;85.90;;;39.93;;
20870;SDS011;10595;51.218;3.452;2022-12-18T01:08:56;83.37;;;36.67;;
20870;SDS011;10595;51.218;3.452;2022-12-18T01:11:23;82.60;;;39.20;;
20870;SDS011;10595;51.218;3.452;2022-12-18T01:13:49;89.27;;;39.70;;
20870;SDS011;10595;51.218;3.452;2022-12-18T01:16:17;86.30;;;39.70;;
20870;SDS011;10595;51.218;3.452;2022-12-18T01:18:43;82.57;;;38.83;;
20870;SDS011;10595;51.218;3.452;2022-12-18T01:21:11;86.83;;;39.03;;
20870;SDS011;10595;51.218;3.452;2022-12-18T01:23:37;86.50;;;38.63;;
20870;SDS011;10595;51.218;3.452;2022-12-18T01:26:04;85.80;;;38.67;;
20870;SDS011;10595;51.218;3.452;2022-12-18T01:28:30;77.97;;;36.57;;
20870;SDS011;10595;51.218;3.452;2022-12-18T01:30:56;86.77;;;38.87;;
20870;SDS011;10595;51.218;3.452;2022-12-18T01:33:22;87.27;;;39.43;;
20870;SDS011;10595;51.218;3.452;2022-12-18T01:35:48;83.23;;;39.37;;
20870;SDS011;10595;51.218;3.452;2022-12-18T01:38:14;91.70;;;42.23;;
20870;SDS011;10595;51.218;3.452;2022-12-18T01:40:40;83.40;;;38.93;;
20870;SDS011;10595;51.218;3.452;2022-12-18T01:43:08;85.77;;;40.90;;
20870;SDS011;10595;51.218;3.452;2022-12-18T01:45:34;83.50;;;40.67;;
20870;SDS011;10595;51.218;3.452;2022-12-18T01:48:07;85.87;;;43.30;;
20870;SDS011;10595;51.218;3.452;2022-12-18T01:50:36;94.70;;;44.83;;
20870;SDS011;10595;51.218;3.452;2022-12-18T01:53:15;95.60;;;44.93;;
20870;SDS011;10595;51.218;3.452;2022-12-18T01:55:45;88.20;;;41.03;;
20870;SDS011;10595;51.218;3.452;2022-12-18T01:58:12;86.87;;;41.00;;
20870;SDS011;10595;51.218;3.452;2022-12-18T02:00:38;92.13;;;41.23;;
20870;SDS011;10595;51.218;3.452;2022-12-18T02:03:04;85.33;;;40.10;;
20870;SDS011;10595;51.218;3.452;2022-12-18T02:06:13;81.77;;;40.23;;
20870;SDS011;10595;51.218;3.452;2022-12-18T02:11:04;89.67;;;39.90;;
20870;SDS011;10595;51.218;3.452;2022-12-18T02:13:36;82.37;;;38.20;;
20870;SDS011;10595;51.218;3.452;2022-12-18T02:18:40;83.80;;;39.07;;
20870;SDS011;10595;51.218;3.452;2022-12-18T02:28:42;78.53;;;37.83;;
20870;SDS011;10595;51.218;3.452;2022-12-18T02:31:11;90.97;;;39.83;;
20870;SDS011;10595;51.218;3.452;2022-12-18T02:33:39;89.17;;;40.07;;
20870;SDS011;10595;51.218;3.452;2022-12-18T02:36:06;88.10;;;40.33;;
20870;SDS011;10595;51.218;3.452;2022-12-18T02:38:32;80.03;;;40.33;;
20870;SDS011;10595;51.218;3.452;2022-12-18T02:40:59;90.57;;;38.43;;
20870;SDS011;10595;51.218;3.452;2022-12-18T02:43:26;84.93;;;39.23;;
20870;SDS011;10595;51.218;3.452;2022-12-18T02:45:53;79.50;;;37.43;;
20870;SDS011;10595;51.218;3.452;2022-12-18T02:48:21;82.90;;;37.63;;
20870;SDS011;10595;51.218;3.452;2022-12-18T02:50:55;84.63;;;38.50;;
20870;SDS011;10595;51.218;3.452;2022-12-18T02:53:27;86.50;;;38.77;;
20870;SDS011;10595;51.218;3.452;2022-12-18T02:56:00;78.90;;;36.50;;
20870;SDS011;10595;51.218;3.452;2022-12-18T03:01:10;78.20;;;37.40;;
20870;SDS011;10595;51.218;3.452;2022-12-18T03:04:22;80.87;;;37.37;;
20870;SDS011;10595;51.218;3.452;2022-12-18T03:08:58;80.20;;;37.47;;
20870;SDS011;10595;51.218;3.452;2022-12-18T03:11:25;77.03;;;35.80;;
20870;SDS011;10595;51.218;3.452;2022-12-18T03:14:11;84.07;;;37.40;;
20870;SDS011;10595;51.218;3.452;2022-12-18T03:16:39;80.17;;;36.00;;
20870;SDS011;10595;51.218;3.452;2022-12-18T03:19:16;78.70;;;35.67;;
20870;SDS011;10595;51.218;3.452;2022-12-18T03:21:49;82.57;;;36.07;;
20870;SDS011;10595;51.218;3.452;2022-12-18T03:24:16;83.80;;;36.33;;
20870;SDS011;10595;51.218;3.452;2022-12-18T03:26:44;80.97;;;36.00;;
20870;SDS011;10595;51.218;3.452;2022-12-18T03:29:16;77.90;;;33.80;;
20870;SDS011;10595;51.218;3.452;2022-12-18T03:31:45;78.03;;;35.23;;
20870;SDS011;10595;51.218;3.452;2022-12-18T03:34:14;75.47;;;32.87;;
20870;SDS011;10595;51.218;3.452;2022-12-18T03:36:41;76.17;;;32.20;;
20870;SDS011;10595;51.218;3.452;2022-12-18T03:39:07;80.37;;;31.90;;
20870;SDS011;10595;51.218;3.452;2022-12-18T03:41:34;70.13;;;31.87;;
20870;SDS011;10595;51.218;3.452;2022-12-18T03:46:33;70.53;;;32.57;;
20870;SDS011;10595;51.218;3.452;2022-12-18T03:49:08;73.10;;;31.50;;
20870;SDS011;10595;51.218;3.452;2022-12-18T03:51:49;70.50;;;30.73;;
20870;SDS011;10595;51.218;3.452;2022-12-18T03:54:16;74.87;;;32.43;;
20870;SDS011;10595;51.218;3.452;2022-12-18T03:56:45;71.00;;;30.63;;
20870;SDS011;10595;51.218;3.452;2022-12-18T03:59:12;65.13;;;29.57;;
20870;SDS011;10595;51.218;3.452;2022-12-18T04:01:40;67.10;;;30.57;;
20870;SDS011;10595;51.218;3.452;2022-12-18T04:04:08;64.43;;;29.93;;
20870;SDS011;10595;51.218;3.452;2022-12-18T04:06:34;71.20;;;31.63;;
20870;SDS011;10595;51.218;3.452;2022-12-18T04:09:01;71.37;;;30.73;;
20870;SDS011;10595;51.218;3.452;2022-12-18T04:11:27;74.47;;;31.00;;
20870;SDS011;10595;51.218;3.452;2022-12-18T04:13:57;58.80;;;28.57;;
20870;SDS011;10595;51.218;3.452;2022-12-18T04:16:24;63.87;;;28.07;;
20870;SDS011;10595;51.218;3.452;2022-12-18T04:18:50;67.20;;;30.73;;
20870;SDS011;10595;51.218;3.452;2022-12-18T04:21:16;66.43;;;29.63;;
20870;SDS011;10595;51.218;3.452;2022-12-18T04:23:42;65.33;;;29.80;;
20870;SDS011;10595;51.218;3.452;2022-12-18T04:26:08;67.50;;;28.07;;
20870;SDS011;10595;51.218;3.452;2022-12-18T04:28:34;67.33;;;29.00;;
20870;SDS011;10595;51.218;3.452;2022-12-18T04:31:01;63.53;;;28.93;;
20870;SDS011;10595;51.218;3.452;2022-12-18T04:33:27;62.07;;;29.37;;
20870;SDS011;10595;51.218;3.452;2022-12-18T04:35:53;59.93;;;28.90;;
20870;SDS011;10595;51.218;3.452;2022-12-18T04:38:19;62.93;;;28.90;;
20870;SDS011;10595;51.218;3.452;2022-12-18T04:40:45;64.33;;;29.57;;
20870;SDS011;10595;51.218;3.452;2022-12-18T04:43:11;63.23;;;28.97;;
20870;SDS011;10595;51.218;3.452;2022-12-18T04:45:37;66.50;;;28.77;;
20870;SDS011;10595;51.218;3.452;2022-12-18T04:48:03;59.13;;;26.87;;
20870;SDS011;10595;51.218;3.452;2022-12-18T04:50:30;64.73;;;28.27;;
20870;SDS011;10595;51.218;3.452;2022-12-18T04:52:56;58.80;;;26.90;;
20870;SDS011;10595;51.218;3.452;2022-12-18T04:55:22;61.20;;;28.97;;
20870;SDS011;10595;51.218;3.452;2022-12-18T04:57:48;54.87;;;26.47;;
20870;SDS011;10595;51.218;3.452;2022-12-18T05:00:14;57.97;;;27.43;;
20870;SDS011;10595;51.218;3.452;2022-12-18T05:02:40;59.87;;;26.57;;
20870;SDS011;10595;51.218;3.452;2022-12-18T05:05:06;59.33;;;26.77;;
20870;SDS011;10595;51.218;3.452;2022-12-18T05:07:32;56.27;;;26.80;;
20870;SDS011;10595;51.218;3.452;2022-12-18T05:09:58;53.00;;;25.77;;
20870;SDS011;10595;51.218;3.452;2022-12-18T05:12:24;51.60;;;25.13;;
20870;SDS011;10595;51.218;3.452;2022-12-18T05:14:51;56.30;;;26.63;;
20870;SDS011;10595;51.218;3.452;2022-12-18T05:17:17;54.17;;;25.53;;
20870;SDS011;10595;51.218;3.452;2022-12-18T05:19:43;53.07;;;26.30;;
20870;SDS011;10595;51.218;3.452;2022-12-18T05:22:09;51.90;;;25.03;;
20870;SDS011;10595;51.218;3.452;2022-12-18T05:24:35;61.90;;;26.53;;
20870;SDS011;10595;51.218;3.452;2022-12-18T05:27:01;55.63;;;24.83;;
20870;SDS011;10595;51.218;3.452;2022-12-18T05:29:27;56.40;;;25.93;;
20870;SDS011;10595;51.218;3.452;2022-12-18T05:31:53;55.03;;;25.27;;
20870;SDS011;10595;51.218;3.452;2022-12-18T05:34:19;57.90;;;26.50;;
20870;SDS011;10595;51.218;3.452;2022-12-18T05:36:45;54.27;;;25.27;;
20870;SDS011;10595;51.218;3.452;2022-12-18T05:39:11;54.60;;;27.10;;
20870;SDS011;10595;51.218;3.452;2022-12-18T05:41:37;64.77;;;27.67;;
20870;SDS011;10595;51.218;3.452;2022-12-18T05:44:03;52.47;;;26.00;;
20870;SDS011;10595;51.218;3.452;2022-12-18T05:46:30;58.47;;;26.60;;
20870;SDS011;10595;51.218;3.452;2022-12-18T05:48:58;57.37;;;26.60;;
20870;SDS011;10595;51.218;3.452;2022-12-18T05:51:24;53.20;;;25.10;;
20870;SDS011;10595;51.218;3.452;2022-12-18T05:53:50;54.50;;;24.77;;
20870;SDS011;10595;51.218;3.452;2022-12-18T05:56:17;54.40;;;25.10;;
20870;SDS011;10595;51.218;3.452;2022-12-18T05:58:44;55.20;;;25.13;;
20870;SDS011;10595;51.218;3.452;2022-12-18T06:01:14;53.03;;;24.77;;
20870;SDS011;10595;51.218;3.452;2022-12-18T06:03:40;58.83;;;25.80;;
20870;SDS011;10595;51.218;3.452;2022-12-18T06:06:16;54.27;;;23.50;;
20870;SDS011;10595;51.218;3.452;2022-12-18T06:08:43;53.30;;;23.37;;
20870;SDS011;10595;51.218;3.452;2022-12-18T06:11:09;53.07;;;24.73;;
20870;SDS011;10595;51.218;3.452;2022-12-18T06:13:35;55.17;;;23.60;;
20870;SDS011;10595;51.218;3.452;2022-12-18T06:16:01;50.90;;;23.23;;
20870;SDS011;10595;51.218;3.452;2022-12-18T06:18:27;48.73;;;23.77;;
20870;SDS011;10595;51.218;3.452;2022-12-18T06:20:54;48.73;;;22.97;;
20870;SDS011;10595;51.218;3.452;2022-12-18T06:23:21;49.67;;;22.60;;
20870;SDS011;10595;51.218;3.452;2022-12-18T06:25:47;46.17;;;22.43;;
20870;SDS011;10595;51.218;3.452;2022-12-18T06:28:13;48.50;;;23.07;;
20870;SDS011;10595;51.218;3.452;2022-12-18T06:30:39;48.57;;;23.50;;
20870;SDS011;10595;51.218;3.452;2022-12-18T06:33:05;50.60;;;23.53;;
20870;SDS011;10595;51.218;3.452;2022-12-18T06:35:31;49.50;;;22.87;;
20870;SDS011;10595;51.218;3.452;2022-12-18T06:37:57;50.47;;;22.43;;
20870;SDS011;10595;51.218;3.452;2022-12-18T06:40:23;45.40;;;21.67;;
20870;SDS011;10595;51.218;3.452;2022-12-18T06:42:49;51.47;;;22.43;;
20870;SDS011;10595;51.218;3.452;2022-12-18T06:45:15;47.63;;;22.17;;
20870;SDS011;10595;51.218;3.452;2022-12-18T06:47:41;49.23;;;23.17;;
20870;SDS011;10595;51.218;3.452;2022-12-18T06:50:08;52.63;;;23.73;;
20870;SDS011;10595;51.218;3.452;2022-12-18T06:52:34;49.90;;;23.40;;
20870;SDS011;10595;51.218;3.452;2022-12-18T06:55:00;51.07;;;23.00;;
20870;SDS011;10595;51.218;3.452;2022-12-18T06:57:26;57.40;;;25.37;;
20870;SDS011;10595;51.218;3.452;2022-12-18T06:59:52;55.97;;;24.90;;
20870;SDS011;10595;51.218;3.452;2022-12-18T07:02:18;62.63;;;27.03;;
20870;SDS011;10595;51.218;3.452;2022-12-18T07:04:44;52.73;;;23.80;;
20870;SDS011;10595;51.218;3.452;2022-12-18T07:07:10;48.50;;;22.67;;
20870;SDS011;10595;51.218;3.452;2022-12-18T07:09:36;54.33;;;23.33;;
20870;SDS011;10595;51.218;3.452;2022-12-18T07:12:02;49.87;;;22.67;;
20870;SDS011;10595;51.218;3.452;2022-12-18T07:14:29;48.60;;;22.93;;
20870;SDS011;10595;51.218;3.452;2022-12-18T07:16:55;45.73;;;21.67;;
20870;SDS011;10595;51.218;3.452;2022-12-18T07:19:21;42.80;;;21.93;;
20870;SDS011;10595;51.218;3.452;2022-12-18T07:21:47;48.77;;;22.77;;
20870;SDS011;10595;51.218;3.452;2022-12-18T07:24:15;47.97;;;22.00;;
20870;SDS011;10595;51.218;3.452;2022-12-18T07:26:41;46.40;;;20.50;;
20870;SDS011;10595;51.218;3.452;2022-12-18T07:29:07;46.90;;;21.70;;
20870;SDS011;10595;51.218;3.452;2022-12-18T07:31:33;44.03;;;21.70;;
20870;SDS011;10595;51.218;3.452;2022-12-18T07:33:59;47.70;;;21.13;;
20870;SDS011;10595;51.218;3.452;2022-12-18T07:36:25;41.77;;;20.60;;
20870;SDS011;10595;51.218;3.452;2022-12-18T07:38:51;39.77;;;19.53;;
20870;SDS011;10595;51.218;3.452;2022-12-18T07:41:18;42.83;;;20.17;;
20870;SDS011;10595;51.218;3.452;2022-12-18T07:43:44;43.73;;;19.40;;
20870;SDS011;10595;51.218;3.452;2022-12-18T07:46:10;39.97;;;19.93;;
20870;SDS011;10595;51.218;3.452;2022-12-18T07:48:38;39.87;;;19.43;;
20870;SDS011;10595;51.218;3.452;2022-12-18T07:51:05;37.33;;;17.80;;
20870;SDS011;10595;51.218;3.452;2022-12-18T07:53:32;35.30;;;16.23;;
20870;SDS011;10595;51.218;3.452;2022-12-18T07:56:05;37.03;;;18.10;;
20870;SDS011;10595;51.218;3.452;2022-12-18T07:58:31;39.63;;;19.37;;
20870;SDS011;10595;51.218;3.452;2022-12-18T08:01:08;41.53;;;20.57;;
20870;SDS011;10595;51.218;3.452;2022-12-18T08:03:34;39.03;;;18.93;;
20870;SDS011;10595;51.218;3.452;2022-12-18T08:06:00;38.67;;;19.27;;
20870;SDS011;10595;51.218;3.452;2022-12-18T08:08:27;39.27;;;18.53;;
20870;SDS011;10595;51.218;3.452;2022-12-18T08:10:53;38.70;;;18.57;;
20870;SDS011;10595;51.218;3.452;2022-12-18T08:13:19;35.40;;;18.17;;
20870;SDS011;10595;51.218;3.452;2022-12-18T08:15:45;33.07;;;17.77;;
20870;SDS011;10595;51.218;3.452;2022-12-18T08:18:11;38.07;;;18.67;;
20870;SDS011;10595;51.218;3.452;2022-12-18T08:20:37;37.37;;;20.23;;
20870;SDS011;10595;51.218;3.452;2022-12-18T08:23:03;42.83;;;20.40;;
20870;SDS011;10595;51.218;3.452;2022-12-18T08:25:29;40.10;;;20.13;;
20870;SDS011;10595;51.218;3.452;2022-12-18T08:27:55;39.53;;;21.20;;
20870;SDS011;10595;51.218;3.452;2022-12-18T08:30:21;34.50;;;19.23;;
20870;SDS011;10595;51.218;3.452;2022-12-18T08:32:50;36.20;;;20.10;;
20870;SDS011;10595;51.218;3.452;2022-12-18T08:35:17;35.60;;;18.87;;
20870;SDS011;10595;51.218;3.452;2022-12-18T08:37:43;33.93;;;17.70;;
20870;SDS011;10595;51.218;3.452;2022-12-18T08:40:09;35.03;;;17.40;;
20870;SDS011;10595;51.218;3.452;2022-12-18T08:42:35;38.70;;;19.00;;
20870;SDS011;10595;51.218;3.452;2022-12-18T08:45:20;34.93;;;18.07;;
20870;SDS011;10595;51.218;3.452;2022-12-18T08:47:46;38.80;;;18.30;;
20870;SDS011;10595;51.218;3.452;2022-12-18T08:50:12;34.77;;;18.60;;
20870;SDS011;10595;51.218;3.452;2022-12-18T08:52:38;36.47;;;18.87;;
20870;SDS011;10595;51.218;3.452;2022-12-18T08:55:04;37.60;;;17.97;;
20870;SDS011;10595;51.218;3.452;2022-12-18T08:57:30;32.70;;;17.33;;
20870;SDS011;10595;51.218;3.452;2022-12-18T08:59:56;35.40;;;16.97;;
20870;SDS011;10595;51.218;3.452;2022-12-18T09:02:22;31.47;;;17.03;;
20870;SDS011;10595;51.218;3.452;2022-12-18T09:04:48;37.73;;;18.37;;
20870;SDS011;10595;51.218;3.452;2022-12-18T09:07:14;32.77;;;16.90;;
20870;SDS011;10595;51.218;3.452;2022-12-18T09:09:40;32.00;;;16.63;;
20870;SDS011;10595;51.218;3.452;2022-12-18T09:12:06;30.07;;;15.57;;
20870;SDS011;10595;51.218;3.452;2022-12-18T09:14:32;29.20;;;16.07;;
20870;SDS011;10595;51.218;3.452;2022-12-18T09:16:58;29.90;;;17.17;;
20870;SDS011;10595;51.218;3.452;2022-12-18T09:19:25;26.43;;;15.90;;
20870;SDS011;10595;51.218;3.452;2022-12-18T09:21:51;31.83;;;17.23;;
20870;SDS011;10595;51.218;3.452;2022-12-18T09:24:17;27.53;;;15.97;;
20870;SDS011;10595;51.218;3.452;2022-12-18T09:26:43;31.53;;;16.53;;
20870;SDS011;10595;51.218;3.452;2022-12-18T09:29:09;29.80;;;16.43;;
20870;SDS011;10595;51.218;3.452;2022-12-18T09:31:35;27.47;;;16.50;;
20870;SDS011;10595;51.218;3.452;2022-12-18T09:34:01;33.17;;;16.37;;
20870;SDS011;10595;51.218;3.452;2022-12-18T09:36:27;29.50;;;16.17;;
20870;SDS011;10595;51.218;3.452;2022-12-18T09:38:53;29.87;;;15.90;;
20870;SDS011;10595;51.218;3.452;2022-12-18T09:43:58;29.87;;;16.23;;
20870;SDS011;10595;51.218;3.452;2022-12-18T09:46:27;30.97;;;16.43;;
20870;SDS011;10595;51.218;3.452;2022-12-18T09:48:54;31.57;;;15.33;;
20870;SDS011;10595;51.218;3.452;2022-12-18T09:51:35;26.63;;;15.57;;
20870;SDS011;10595;51.218;3.452;2022-12-18T09:57:01;28.10;;;15.13;;
20870;SDS011;10595;51.218;3.452;2022-12-18T09:59:30;29.57;;;15.23;;
20870;SDS011;10595;51.218;3.452;2022-12-18T10:01:57;28.33;;;15.37;;
20870;SDS011;10595;51.218;3.452;2022-12-18T10:04:23;27.83;;;14.77;;
20870;SDS011;10595;51.218;3.452;2022-12-18T10:06:54;28.90;;;14.53;;
20870;SDS011;10595;51.218;3.452;2022-12-18T10:19:54;27.77;;;14.87;;
20870;SDS011;10595;51.218;3.452;2022-12-18T10:22:26;27.17;;;15.87;;
20870;SDS011;10595;51.218;3.452;2022-12-18T10:27:28;29.93;;;14.90;;
20870;SDS011;10595;51.218;3.452;2022-12-18T10:29:55;26.97;;;15.30;;
20870;SDS011;10595;51.218;3.452;2022-12-18T10:32:22;28.03;;;15.80;;
20870;SDS011;10595;51.218;3.452;2022-12-18T10:34:50;30.00;;;16.90;;
20870;SDS011;10595;51.218;3.452;2022-12-18T10:37:17;30.13;;;15.70;;
20870;SDS011;10595;51.218;3.452;2022-12-18T10:39:44;26.70;;;14.20;;
20870;SDS011;10595;51.218;3.452;2022-12-18T10:42:13;26.17;;;13.87;;
20870;SDS011;10595;51.218;3.452;2022-12-18T10:44:41;29.57;;;15.33;;
20870;SDS011;10595;51.218;3.452;2022-12-18T10:47:10;26.73;;;14.00;;
20870;SDS011;10595;51.218;3.452;2022-12-18T10:49:37;27.20;;;14.90;;
20870;SDS011;10595;51.218;3.452;2022-12-18T10:52:16;28.53;;;15.97;;
20870;SDS011;10595;51.218;3.452;2022-12-18T10:54:46;26.80;;;14.77;;
20870;SDS011;10595;51.218;3.452;2022-12-18T10:57:14;26.87;;;15.10;;
20870;SDS011;10595;51.218;3.452;2022-12-18T10:59:51;26.03;;;14.87;;
20870;SDS011;10595;51.218;3.452;2022-12-18T11:02:28;26.87;;;15.03;;
20870;SDS011;10595;51.218;3.452;2022-12-18T11:04:59;30.33;;;15.80;;
20870;SDS011;10595;51.218;3.452;2022-12-18T11:07:25;28.67;;;15.10;;
20870;SDS011;10595;51.218;3.452;2022-12-18T11:10:00;29.50;;;15.33;;
20870;SDS011;10595;51.218;3.452;2022-12-18T11:12:27;28.87;;;15.43;;
20870;SDS011;10595;51.218;3.452;2022-12-18T11:14:54;27.17;;;15.13;;
20870;SDS011;10595;51.218;3.452;2022-12-18T11:17:22;28.23;;;15.70;;
20870;SDS011;10595;51.218;3.452;2022-12-18T11:19:57;26.53;;;14.70;;
20870;SDS011;10595;51.218;3.452;2022-12-18T11:22:28;27.57;;;15.27;;
20870;SDS011;10595;51.218;3.452;2022-12-18T11:25:01;27.90;;;15.20;;
20870;SDS011;10595;51.218;3.452;2022-12-18T11:27:28;26.30;;;14.93;;
20870;SDS011;10595;51.218;3.452;2022-12-18T11:30:07;24.53;;;14.37;;
20870;SDS011;10595;51.218;3.452;2022-12-18T11:35:02;24.40;;;14.93;;
20870;SDS011;10595;51.218;3.452;2022-12-18T11:37:29;25.87;;;14.40;;
20870;SDS011;10595;51.218;3.452;2022-12-18T11:40:03;29.13;;;15.33;;
20870;SDS011;10595;51.218;3.452;2022-12-18T11:43:19;27.27;;;15.43;;
20870;SDS011;10595;51.218;3.452;2022-12-18T11:45:24;26.63;;;14.83;;
20870;SDS011;10595;51.218;3.452;2022-12-18T11:48:04;31.10;;;16.47;;
20870;SDS011;10595;51.218;3.452;2022-12-18T11:53:01;28.40;;;15.47;;
20870;SDS011;10595;51.218;3.452;2022-12-18T12:00:29;28.10;;;15.80;;
20870;SDS011;10595;51.218;3.452;2022-12-18T12:03:15;28.13;;;15.67;;
20870;SDS011;10595;51.218;3.452;2022-12-18T12:08:27;25.90;;;15.00;;
20870;SDS011;10595;51.218;3.452;2022-12-18T12:13:52;28.50;;;15.67;;
20870;SDS011;10595;51.218;3.452;2022-12-18T12:21:35;28.13;;;15.37;;
20870;SDS011;10595;51.218;3.452;2022-12-18T12:26:36;32.73;;;18.27;;
20870;SDS011;10595;51.218;3.452;2022-12-18T12:29:10;32.30;;;17.47;;
20870;SDS011;10595;51.218;3.452;2022-12-18T12:34:17;33.33;;;16.80;;
20870;SDS011;10595;51.218;3.452;2022-12-18T12:39:26;30.53;;;17.00;;
20870;SDS011;10595;51.218;3.452;2022-12-18T12:41:57;30.93;;;17.93;;
20870;SDS011;10595;51.218;3.452;2022-12-18T12:44:43;33.60;;;18.47;;
20870;SDS011;10595;51.218;3.452;2022-12-18T12:47:30;34.73;;;17.43;;
20870;SDS011;10595;51.218;3.452;2022-12-18T12:49:58;34.23;;;20.07;;
20870;SDS011;10595;51.218;3.452;2022-12-18T12:52:35;36.87;;;19.23;;
20870;SDS011;10595;51.218;3.452;2022-12-18T12:55:02;33.80;;;18.27;;
20870;SDS011;10595;51.218;3.452;2022-12-18T12:57:37;38.87;;;18.60;;
20870;SDS011;10595;51.218;3.452;2022-12-18T13:00:10;35.73;;;19.80;;
20870;SDS011;10595;51.218;3.452;2022-12-18T13:02:39;31.23;;;17.50;;
20870;SDS011;10595;51.218;3.452;2022-12-18T13:07:50;36.33;;;20.07;;
20870;SDS011;10595;51.218;3.452;2022-12-18T13:18:04;38.77;;;19.47;;
20870;SDS011;10595;51.218;3.452;2022-12-18T13:23:48;38.87;;;19.83;;
20870;SDS011;10595;51.218;3.452;2022-12-18T13:25:49;40.97;;;20.87;;
20870;SDS011;10595;51.218;3.452;2022-12-18T13:29:02;36.70;;;19.60;;
20870;SDS011;10595;51.218;3.452;2022-12-18T13:31:02;40.90;;;20.97;;
20870;SDS011;10595;51.218;3.452;2022-12-18T13:36:29;37.93;;;21.90;;
20870;SDS011;10595;51.218;3.452;2022-12-18T13:38:46;40.43;;;21.43;;
20870;SDS011;10595;51.218;3.452;2022-12-18T13:43:45;48.53;;;23.83;;
20870;SDS011;10595;51.218;3.452;2022-12-18T13:51:29;44.07;;;22.50;;
20870;SDS011;10595;51.218;3.452;2022-12-18T13:53:58;45.07;;;22.07;;
20870;SDS011;10595;51.218;3.452;2022-12-18T13:56:26;42.03;;;22.20;;
20870;SDS011;10595;51.218;3.452;2022-12-18T13:59:26;43.87;;;22.00;;
20870;SDS011;10595;51.218;3.452;2022-12-18T14:01:52;47.60;;;21.90;;
20870;SDS011;10595;51.218;3.452;2022-12-18T14:06:45;47.93;;;23.77;;
20870;SDS011;10595;51.218;3.452;2022-12-18T14:09:15;40.93;;;21.80;;
20870;SDS011;10595;51.218;3.452;2022-12-18T14:11:45;43.87;;;22.10;;
20870;SDS011;10595;51.218;3.452;2022-12-18T14:14:13;46.10;;;23.27;;
20870;SDS011;10595;51.218;3.452;2022-12-18T14:16:40;47.47;;;22.50;;
20870;SDS011;10595;51.218;3.452;2022-12-18T14:19:08;46.37;;;23.37;;
20870;SDS011;10595;51.218;3.452;2022-12-18T14:21:36;50.80;;;22.63;;
20870;SDS011;10595;51.218;3.452;2022-12-18T14:24:04;53.30;;;25.23;;
20870;SDS011;10595;51.218;3.452;2022-12-18T14:26:31;48.03;;;23.43;;
20870;SDS011;10595;51.218;3.452;2022-12-18T14:28:58;46.43;;;24.00;;
20870;SDS011;10595;51.218;3.452;2022-12-18T14:31:27;47.10;;;23.33;;
20870;SDS011;10595;51.218;3.452;2022-12-18T14:33:53;48.33;;;22.97;;
20870;SDS011;10595;51.218;3.452;2022-12-18T14:36:20;47.27;;;23.67;;
20870;SDS011;10595;51.218;3.452;2022-12-18T14:38:51;45.00;;;23.13;;
20870;SDS011;10595;51.218;3.452;2022-12-18T14:41:19;43.13;;;23.00;;
20870;SDS011;10595;51.218;3.452;2022-12-18T14:43:47;46.77;;;23.47;;
20870;SDS011;10595;51.218;3.452;2022-12-18T14:46:30;46.03;;;24.00;;
20870;SDS011;10595;51.218;3.452;2022-12-18T14:48:59;46.10;;;22.40;;
20870;SDS011;10595;51.218;3.452;2022-12-18T14:51:26;48.43;;;23.07;;
20870;SDS011;10595;51.218;3.452;2022-12-18T14:56:22;48.83;;;23.47;;
20870;SDS011;10595;51.218;3.452;2022-12-18T14:58:59;42.97;;;21.67;;
20870;SDS011;10595;51.218;3.452;2022-12-18T15:01:39;45.70;;;22.67;;
20870;SDS011;10595;51.218;3.452;2022-12-18T15:04:29;49.17;;;24.20;;
20870;SDS011;10595;51.218;3.452;2022-12-18T15:07:07;47.97;;;23.07;;
20870;SDS011;10595;51.218;3.452;2022-12-18T15:09:34;47.00;;;22.53;;
20870;SDS011;10595;51.218;3.452;2022-12-18T15:12:00;43.23;;;21.93;;
20870;SDS011;10595;51.218;3.452;2022-12-18T15:16:56;47.13;;;23.47;;
20870;SDS011;10595;51.218;3.452;2022-12-18T15:19:24;42.70;;;21.67;;
20870;SDS011;10595;51.218;3.452;2022-12-18T15:21:52;41.07;;;21.73;;
20870;SDS011;10595;51.218;3.452;2022-12-18T15:24:18;44.70;;;21.67;;
20870;SDS011;10595;51.218;3.452;2022-12-18T15:26:46;44.50;;;21.90;;
20870;SDS011;10595;51.218;3.452;2022-12-18T15:29:19;47.73;;;22.30;;
20870;SDS011;10595;51.218;3.452;2022-12-18T15:31:57;46.23;;;21.93;;
20870;SDS011;10595;51.218;3.452;2022-12-18T15:34:23;43.83;;;22.30;;
20870;SDS011;10595;51.218;3.452;2022-12-18T15:36:51;46.33;;;22.73;;
20870;SDS011;10595;51.218;3.452;2022-12-18T15:39:17;47.03;;;23.23;;
20870;SDS011;10595;51.218;3.452;2022-12-18T15:41:43;41.00;;;21.30;;
20870;SDS011;10595;51.218;3.452;2022-12-18T15:44:30;46.40;;;22.27;;
20870;SDS011;10595;51.218;3.452;2022-12-18T15:46:56;45.20;;;22.50;;
20870;SDS011;10595;51.218;3.452;2022-12-18T15:49:22;46.10;;;21.97;;
20870;SDS011;10595;51.218;3.452;2022-12-18T15:51:50;44.53;;;21.90;;
20870;SDS011;10595;51.218;3.452;2022-12-18T15:54:17;47.93;;;23.37;;
20870;SDS011;10595;51.218;3.452;2022-12-18T15:57:03;44.27;;;21.93;;
20870;SDS011;10595;51.218;3.452;2022-12-18T15:59:47;44.77;;;22.50;;
20870;SDS011;10595;51.218;3.452;2022-12-18T16:02:15;46.60;;;22.17;;
20870;SDS011;10595;51.218;3.452;2022-12-18T16:04:42;48.47;;;27.73;;
20870;SDS011;10595;51.218;3.452;2022-12-18T16:07:09;47.67;;;24.57;;